createdAt,value
2019-01-30T00:02:08.680Z,10.45
2019-01-30T00:04:38.504Z,9.83
2019-01-30T00:07:08.189Z,10.10
2019-01-30T00:09:37.571Z,9.50
2019-01-30T00:12:07.015Z,9.20
2019-01-30T00:14:36.562Z,10.75
2019-01-30T00:17:06.211Z,11.43
2019-01-30T00:19:35.558Z,10.05
2019-01-30T00:22:05.737Z,10.55
2019-01-30T00:24:35.117Z,10.00
2019-01-30T00:27:04.780Z,9.73
2019-01-30T00:29:34.123Z,8.65
2019-01-30T00:32:03.658Z,8.90
2019-01-30T00:34:33.242Z,9.98
2019-01-30T00:37:02.685Z,8.18
2019-01-30T00:39:32.246Z,9.33
2019-01-30T00:42:02.104Z,10.20
2019-01-30T00:44:31.404Z,10.32
2019-01-30T00:47:01.901Z,9.40
2019-01-30T00:49:31.342Z,11.38
2019-01-30T00:52:00.779Z,11.25
2019-01-30T00:54:32.235Z,11.28
2019-01-30T00:57:01.523Z,9.15
2019-01-30T00:59:31.042Z,10.93
2019-01-30T01:02:01.253Z,10.50
2019-01-30T01:04:30.625Z,10.88
2019-01-30T01:07:00.029Z,11.12
2019-01-30T01:09:29.461Z,12.18
2019-01-30T01:11:58.934Z,10.03
2019-01-30T01:14:28.537Z,11.22
2019-01-30T01:16:58.198Z,10.98
2019-01-30T01:19:27.629Z,11.08
2019-01-30T01:21:57.063Z,12.00
2019-01-30T01:24:26.774Z,10.55
2019-01-30T01:26:56.279Z,11.38
2019-01-30T01:29:25.710Z,11.60
2019-01-30T01:31:55.453Z,11.22
2019-01-30T01:34:24.759Z,11.00
2019-01-30T01:36:54.329Z,11.88
2019-01-30T01:39:23.938Z,11.78
2019-01-30T01:41:53.581Z,12.28
2019-01-30T01:44:22.997Z,11.33
2019-01-30T01:46:52.673Z,12.55
2019-01-30T01:49:22.231Z,11.10
2019-01-30T01:51:51.874Z,12.45
2019-01-30T01:54:21.322Z,10.68
2019-01-30T01:56:50.868Z,10.80
2019-01-30T01:59:20.354Z,10.78
2019-01-30T02:01:49.904Z,11.70
2019-01-30T02:04:19.450Z,11.48
2019-01-30T02:06:48.843Z,12.23
2019-01-30T02:09:18.553Z,12.58
2019-01-30T02:11:48.318Z,12.13
2019-01-30T02:14:17.592Z,11.80
2019-01-30T02:16:47.183Z,12.63
2019-01-30T02:19:16.622Z,15.15
2019-01-30T02:21:46.263Z,14.63
2019-01-30T02:24:15.828Z,15.30
2019-01-30T02:26:45.353Z,16.52
2019-01-30T02:29:14.853Z,14.78
2019-01-30T02:31:44.404Z,13.58
2019-01-30T02:34:13.964Z,12.78
2019-01-30T02:36:59.262Z,13.20
2019-01-30T02:39:28.789Z,13.45
2019-01-30T02:41:58.304Z,13.83
2019-01-30T02:44:27.689Z,12.58
2019-01-30T02:46:57.150Z,13.58
2019-01-30T02:49:27.005Z,12.18
2019-01-30T02:51:56.402Z,12.60
2019-01-30T02:54:25.989Z,12.98
2019-01-30T02:56:55.454Z,13.13
2019-01-30T02:59:25.206Z,11.78
2019-01-30T03:02:13.543Z,12.05
2019-01-30T03:04:42.907Z,12.53
2019-01-30T03:07:13.219Z,11.65
2019-01-30T03:09:42.725Z,12.53
2019-01-30T03:12:12.263Z,12.53
2019-01-30T03:14:41.771Z,12.13
2019-01-30T03:17:11.499Z,11.63
2019-01-30T03:19:40.981Z,11.70
2019-01-30T03:22:10.470Z,11.85
2019-01-30T03:24:40.066Z,18.75
2019-01-30T03:27:09.995Z,13.50
2019-01-30T03:29:39.274Z,12.88
2019-01-30T03:32:08.672Z,18.30
2019-01-30T03:34:38.242Z,16.60
2019-01-30T03:37:07.639Z,12.85
2019-01-30T03:39:37.333Z,12.55
2019-01-30T03:42:06.797Z,12.90
2019-01-30T03:44:36.632Z,13.25
2019-01-30T03:47:05.917Z,12.63
2019-01-30T03:49:35.520Z,12.15
2019-01-30T03:52:05.078Z,12.07
2019-01-30T03:54:34.639Z,11.70
2019-01-30T03:57:04.208Z,11.70
2019-01-30T03:59:33.758Z,11.90
2019-01-30T04:02:03.316Z,10.50
2019-01-30T04:04:32.798Z,10.72
2019-01-30T04:07:02.435Z,9.73
2019-01-30T04:09:31.889Z,10.25
2019-01-30T04:12:01.374Z,10.50
2019-01-30T04:14:30.858Z,11.08
2019-01-30T04:17:00.458Z,11.33
2019-01-30T04:19:29.962Z,12.93
2019-01-30T04:21:59.602Z,11.68
2019-01-30T04:24:29.121Z,10.72
2019-01-30T04:26:58.680Z,12.50
2019-01-30T04:29:28.298Z,11.53
2019-01-30T04:31:57.781Z,10.20
2019-01-30T04:34:27.257Z,9.60
2019-01-30T04:36:56.805Z,10.30
2019-01-30T04:39:26.403Z,10.43
2019-01-30T04:41:55.786Z,9.70
2019-01-30T04:44:25.342Z,9.98
2019-01-30T04:46:54.950Z,9.40
2019-01-30T04:49:24.571Z,9.68
2019-01-30T04:51:54.061Z,9.98
2019-01-30T04:54:23.901Z,8.85
2019-01-30T04:56:53.273Z,9.40
2019-01-30T04:59:23.027Z,9.63
2019-01-30T05:01:52.497Z,10.10
2019-01-30T05:04:22.185Z,10.48
2019-01-30T05:06:51.540Z,10.93
2019-01-30T05:09:22.389Z,10.88
2019-01-30T05:11:51.838Z,11.35
2019-01-30T05:14:22.042Z,10.80
2019-01-30T05:16:51.538Z,10.85
2019-01-30T05:19:21.443Z,11.20
2019-01-30T05:21:50.746Z,10.32
2019-01-30T05:24:20.206Z,11.38
2019-01-30T05:26:49.801Z,10.10
2019-01-30T05:29:19.225Z,10.45
2019-01-30T05:31:48.857Z,9.65
2019-01-30T05:34:18.366Z,9.50
2019-01-30T05:36:48.145Z,10.38
2019-01-30T05:39:17.574Z,9.60
2019-01-30T05:41:47.073Z,9.23
2019-01-30T05:44:16.647Z,10.30
2019-01-30T05:46:46.075Z,9.88
2019-01-30T05:49:15.599Z,8.65
2019-01-30T05:51:45.163Z,10.10
2019-01-30T05:54:14.658Z,10.08
2019-01-30T05:56:44.161Z,10.82
2019-01-30T05:59:14.002Z,11.28
2019-01-30T06:01:46.554Z,10.85
2019-01-30T06:04:15.882Z,10.90
2019-01-30T06:06:45.559Z,10.03
2019-01-30T06:09:15.065Z,21.48
2019-01-30T06:11:44.627Z,10.63
2019-01-30T06:14:13.961Z,10.28
2019-01-30T06:16:43.514Z,10.63
2019-01-30T06:19:13.034Z,17.40
2019-01-30T06:21:42.605Z,20.12
2019-01-30T06:24:12.180Z,11.83
2019-01-30T06:26:41.698Z,13.72
2019-01-30T06:29:11.431Z,15.10
2019-01-30T06:31:40.954Z,15.08
2019-01-30T06:34:10.535Z,10.95
2019-01-30T06:36:39.967Z,10.03
2019-01-30T06:39:09.464Z,9.00
2019-01-30T06:41:39.033Z,9.90
2019-01-30T06:44:08.735Z,10.15
2019-01-30T06:46:38.149Z,10.60
2019-01-30T06:49:07.664Z,16.52
2019-01-30T06:51:37.067Z,11.03
2019-01-30T06:54:06.805Z,12.60
2019-01-30T06:56:36.315Z,16.23
2019-01-30T06:59:05.942Z,11.48
2019-01-30T07:01:35.394Z,11.45
2019-01-30T07:04:04.953Z,13.85
2019-01-30T07:06:34.449Z,15.00
2019-01-30T07:09:06.170Z,12.33
2019-01-30T07:11:35.597Z,10.68
2019-01-30T07:14:05.028Z,16.23
2019-01-30T07:16:35.357Z,25.23
2019-01-30T07:19:05.146Z,48.70
2019-01-30T07:21:34.823Z,23.98
2019-01-30T07:24:04.430Z,27.13
2019-01-30T07:26:33.993Z,24.63
2019-01-30T07:29:03.288Z,25.77
2019-01-30T07:31:33.230Z,30.08
2019-01-30T07:34:02.570Z,30.20
2019-01-30T07:36:31.944Z,28.77
2019-01-30T07:39:01.683Z,26.62
2019-01-30T07:41:31.117Z,25.05
2019-01-30T07:44:00.574Z,17.27
2019-01-30T07:46:30.060Z,16.32
2019-01-30T07:48:59.589Z,15.85
2019-01-30T07:51:29.183Z,13.18
2019-01-30T07:53:58.753Z,14.73
2019-01-30T07:56:29.100Z,14.85
2019-01-30T07:58:58.818Z,12.30
2019-01-30T08:01:28.423Z,16.95
2019-01-30T08:03:57.789Z,15.60
2019-01-30T08:06:27.419Z,15.48
2019-01-30T08:08:57.008Z,16.48
2019-01-30T08:11:26.495Z,17.20
2019-01-30T08:13:56.098Z,30.52
2019-01-30T08:16:25.536Z,32.65
2019-01-30T08:18:55.313Z,34.75
2019-01-30T08:21:24.735Z,17.95
2019-01-30T08:23:54.519Z,21.17
2019-01-30T08:26:25.678Z,15.68
2019-01-30T08:28:55.512Z,12.35
2019-01-30T08:31:25.199Z,10.10
2019-01-30T08:33:54.760Z,8.85
2019-01-30T08:36:24.134Z,8.58
2019-01-30T08:38:53.674Z,8.93
2019-01-30T08:41:23.075Z,9.70
2019-01-30T08:43:52.555Z,8.93
2019-01-30T08:46:22.415Z,8.60
2019-01-30T08:48:51.868Z,9.45
2019-01-30T08:51:21.325Z,9.98
2019-01-30T08:53:50.886Z,12.80
2019-01-30T08:56:20.274Z,13.30
2019-01-30T08:58:49.705Z,10.10
2019-01-30T09:01:19.229Z,9.18
2019-01-30T09:03:48.958Z,8.73
2019-01-30T09:06:18.599Z,8.98
2019-01-30T09:08:48.066Z,8.58
2019-01-30T09:11:17.490Z,8.53
2019-01-30T09:13:47.028Z,10.43
2019-01-30T09:16:16.804Z,12.60
2019-01-30T09:18:46.612Z,13.18
2019-01-30T09:21:15.983Z,13.60
2019-01-30T09:23:45.774Z,10.43
2019-01-30T09:26:15.160Z,8.57
2019-01-30T09:28:44.641Z,8.03
2019-01-30T09:31:14.010Z,9.73
2019-01-30T09:33:43.569Z,12.07
2019-01-30T09:36:13.233Z,11.70
2019-01-30T09:38:42.596Z,10.40
2019-01-30T09:41:12.150Z,9.97
2019-01-30T09:43:41.678Z,10.17
2019-01-30T09:46:11.148Z,7.93
2019-01-30T09:48:40.906Z,10.93
2019-01-30T09:51:10.361Z,9.47
2019-01-30T09:53:39.862Z,6.73
2019-01-30T09:56:09.383Z,5.10
2019-01-30T09:58:38.852Z,5.10
2019-01-30T10:01:08.609Z,6.43
2019-01-30T10:03:38.123Z,2.40
2019-01-30T10:06:09.180Z,2.20
2019-01-30T10:08:38.442Z,2.63
2019-01-30T10:11:07.802Z,4.30
2019-01-30T10:13:37.558Z,3.70
2019-01-30T10:16:07.075Z,3.67
2019-01-30T10:18:36.746Z,3.00
2019-01-30T10:21:06.168Z,2.60
2019-01-30T10:23:35.774Z,1.63
2019-01-30T10:26:05.632Z,4.27
2019-01-30T10:28:34.986Z,1.17
2019-01-30T10:31:04.351Z,1.40
2019-01-30T10:33:33.835Z,1.77
2019-01-30T10:36:03.322Z,1.40
2019-01-30T10:38:32.771Z,4.57
2019-01-30T10:41:02.249Z,4.00
2019-01-30T10:43:31.884Z,2.80
2019-01-30T10:46:01.300Z,3.10
2019-01-30T10:48:30.836Z,2.50
2019-01-30T10:51:00.384Z,1.90
2019-01-30T10:53:29.904Z,1.97
2019-01-30T10:55:59.334Z,1.87
2019-01-30T10:58:28.953Z,1.77
2019-01-30T11:00:58.558Z,4.43
2019-01-30T11:03:28.059Z,1.97
2019-01-30T11:05:57.492Z,1.33
2019-01-30T11:08:27.158Z,1.60
2019-01-30T11:10:56.561Z,1.40
2019-01-30T11:13:26.390Z,1.30
2019-01-30T11:15:56.265Z,1.13
2019-01-30T11:18:25.659Z,1.53
2019-01-30T11:20:55.333Z,1.33
2019-01-30T11:23:24.743Z,2.67
2019-01-30T11:25:56.885Z,1.37
2019-01-30T11:28:25.714Z,1.17
2019-01-30T11:30:55.661Z,3.00
2019-01-30T11:33:25.135Z,2.57
2019-01-30T11:35:54.708Z,2.73
2019-01-30T11:38:24.084Z,1.70
2019-01-30T11:40:54.004Z,2.70
2019-01-30T11:43:23.596Z,3.00
2019-01-30T11:45:53.182Z,1.60
2019-01-30T11:48:22.823Z,3.13
2019-01-30T11:50:52.236Z,3.50
2019-01-30T11:53:21.963Z,1.60
2019-01-30T11:55:51.805Z,5.63
2019-01-30T11:58:21.274Z,3.67
2019-01-30T12:01:03.393Z,1.73
2019-01-30T12:03:32.382Z,2.87
2019-01-30T12:06:01.886Z,3.13
2019-01-30T12:08:31.447Z,2.03
2019-01-30T12:11:01.221Z,2.20
2019-01-30T12:13:31.011Z,2.27
2019-01-30T12:16:01.034Z,2.80
2019-01-30T12:18:30.471Z,2.77
2019-01-30T12:21:00.111Z,3.47
2019-01-30T12:23:29.541Z,4.60
2019-01-30T12:25:59.237Z,3.93
2019-01-30T12:28:28.597Z,3.60
2019-01-30T12:30:58.114Z,6.93
2019-01-30T12:33:27.470Z,5.37
2019-01-30T12:35:56.994Z,3.70
2019-01-30T12:38:26.425Z,4.67
2019-01-30T12:40:56.071Z,20.90
2019-01-30T12:43:25.498Z,21.33
2019-01-30T12:45:55.118Z,20.83
2019-01-30T12:48:24.611Z,4.63
2019-01-30T12:50:54.550Z,9.77
2019-01-30T12:53:23.938Z,10.70
2019-01-30T12:55:53.363Z,5.77
2019-01-30T12:58:22.857Z,7.73
2019-01-30T13:00:52.448Z,2.93
2019-01-30T13:03:22.055Z,2.97
2019-01-30T13:05:51.481Z,5.63
2019-01-30T13:08:21.112Z,4.40
2019-01-30T13:10:50.637Z,6.47
2019-01-30T13:13:20.094Z,6.90
2019-01-30T13:15:49.643Z,4.70
2019-01-30T13:18:19.219Z,4.30
2019-01-30T13:20:48.856Z,6.60
2019-01-30T13:23:18.254Z,4.57
2019-01-30T13:25:47.866Z,5.20
2019-01-30T13:28:17.623Z,8.47
2019-01-30T13:30:46.996Z,5.80
2019-01-30T13:33:16.729Z,6.63
2019-01-30T13:35:46.106Z,3.87
2019-01-30T13:38:15.563Z,3.60
2019-01-30T13:40:45.164Z,6.10
2019-01-30T13:43:14.686Z,3.03
2019-01-30T13:45:44.211Z,2.27
2019-01-30T13:48:16.041Z,2.90
2019-01-30T13:50:46.048Z,3.83
2019-01-30T13:53:15.769Z,3.10
2019-01-30T13:55:45.303Z,2.77
2019-01-30T13:58:14.785Z,3.53
2019-01-30T14:00:44.445Z,7.13
2019-01-30T14:03:13.939Z,7.80
2019-01-30T14:05:43.431Z,5.00
2019-01-30T14:08:14.311Z,14.73
2019-01-30T14:10:43.930Z,6.73
2019-01-30T14:13:13.399Z,7.50
2019-01-30T14:15:42.798Z,12.20
2019-01-30T14:18:12.227Z,4.27
2019-01-30T14:20:41.673Z,5.93
2019-01-30T14:23:11.486Z,4.90
2019-01-30T14:25:41.088Z,5.30
2019-01-30T14:28:10.797Z,5.23
2019-01-30T14:30:40.942Z,3.50
2019-01-30T14:33:10.704Z,4.80
2019-01-30T14:35:42.349Z,5.30
2019-01-30T14:38:12.521Z,4.70
2019-01-30T14:40:42.488Z,8.10
2019-01-30T14:43:12.348Z,4.83
2019-01-30T14:45:42.181Z,8.77
2019-01-30T14:48:12.102Z,6.80
2019-01-30T14:50:41.805Z,6.37
2019-01-30T14:53:11.784Z,7.40
2019-01-30T14:55:41.537Z,5.67
2019-01-30T14:58:11.791Z,8.50
2019-01-30T15:00:41.410Z,5.63
2019-01-30T15:03:10.961Z,8.47
2019-01-30T15:05:40.678Z,7.07
2019-01-30T15:08:10.245Z,6.07
2019-01-30T15:10:39.702Z,4.07
2019-01-30T15:13:09.631Z,5.53
2019-01-30T15:15:39.109Z,7.90
2019-01-30T15:18:09.105Z,6.87
2019-01-30T15:20:39.269Z,11.17
2019-01-30T15:23:09.610Z,8.17
2019-01-30T15:25:39.664Z,7.87
2019-01-30T15:28:09.658Z,6.47
2019-01-30T15:30:47.437Z,5.27
2019-01-30T15:33:17.656Z,3.60
2019-01-30T15:35:47.125Z,6.77
2019-01-30T15:38:20.616Z,4.90
2019-01-30T15:40:49.768Z,4.77
2019-01-30T15:43:19.375Z,6.60
2019-01-30T15:45:48.854Z,8.90
2019-01-30T15:48:18.749Z,5.17
2019-01-30T15:50:48.189Z,8.93
2019-01-30T15:53:20.500Z,4.97
2019-01-30T15:55:50.151Z,6.30
2019-01-30T15:58:19.871Z,6.47
2019-01-30T16:01:06.025Z,4.27
2019-01-30T16:03:35.628Z,4.60
2019-01-30T16:06:05.404Z,7.23
2019-01-30T16:08:35.123Z,10.30
2019-01-30T16:11:04.806Z,5.40
2019-01-30T16:13:34.354Z,5.13
2019-01-30T16:16:06.328Z,3.70
2019-01-30T16:18:35.765Z,4.63
2019-01-30T16:21:05.788Z,2.73
2019-01-30T16:23:35.683Z,3.60
2019-01-30T16:26:05.673Z,2.30
2019-01-30T16:28:35.536Z,2.13
2019-01-30T16:31:05.381Z,2.80
2019-01-30T16:33:34.991Z,2.60
2019-01-30T16:36:05.090Z,2.60
2019-01-30T16:38:34.949Z,1.77
2019-01-30T16:41:04.785Z,2.43
2019-01-30T16:43:34.541Z,2.50
2019-01-30T16:46:04.211Z,1.47
2019-01-30T16:48:33.985Z,2.23
2019-01-30T16:51:04.153Z,3.10
2019-01-30T16:53:34.746Z,2.63
2019-01-30T16:56:05.207Z,2.30
2019-01-30T16:58:36.241Z,2.90
2019-01-30T17:01:07.970Z,3.13
2019-01-30T17:03:37.476Z,3.42
2019-01-30T17:06:07.917Z,4.27
2019-01-30T17:08:37.630Z,3.13
2019-01-30T17:11:07.488Z,4.00
2019-01-30T17:13:37.266Z,2.90
2019-01-30T17:16:07.844Z,4.07
2019-01-30T17:18:38.327Z,3.70
2019-01-30T17:21:08.622Z,2.93
2019-01-30T17:23:39.048Z,3.57
2019-01-30T17:26:09.865Z,2.50
2019-01-30T17:28:39.571Z,2.98
2019-01-30T17:31:15.542Z,2.30
2019-01-30T17:33:45.246Z,3.53
2019-01-30T17:36:18.506Z,8.27
2019-01-30T17:38:46.240Z,17.90
2019-01-30T17:41:15.946Z,18.13
2019-01-30T17:43:45.575Z,16.57
2019-01-30T17:46:15.103Z,8.55
2019-01-30T17:48:44.700Z,20.37
2019-01-30T17:51:14.354Z,29.60
2019-01-30T17:53:44.283Z,12.00
2019-01-30T17:56:13.966Z,5.60
2019-01-30T17:58:43.837Z,7.45
2019-01-30T18:01:15.084Z,38.80
2019-01-30T18:03:45.096Z,12.45
2019-01-30T18:06:15.149Z,10.48
2019-01-30T18:08:44.937Z,7.45
2019-01-30T18:11:14.756Z,6.83
2019-01-30T18:13:45.234Z,7.03
2019-01-30T18:16:15.366Z,7.25
2019-01-30T18:18:45.242Z,7.87
2019-01-30T18:21:15.376Z,6.97
2019-01-30T18:23:45.205Z,5.78
2019-01-30T18:26:15.832Z,5.70
2019-01-30T18:28:47.917Z,5.10
2019-01-30T18:31:17.545Z,5.45
2019-01-30T18:33:47.804Z,5.33
2019-01-30T18:36:18.098Z,4.60
2019-01-30T18:38:48.256Z,4.67
2019-01-30T18:41:18.433Z,4.87
2019-01-30T18:43:48.406Z,4.87
2019-01-30T18:46:18.678Z,4.45
2019-01-30T18:48:48.754Z,3.80
2019-01-30T18:51:18.707Z,3.70
2019-01-30T18:53:48.597Z,3.60
2019-01-30T18:56:18.563Z,3.87
2019-01-30T18:58:48.547Z,3.70
2019-01-30T19:01:18.395Z,3.00
2019-01-30T19:03:48.540Z,3.50
2019-01-30T19:06:18.803Z,3.00
2019-01-30T19:08:48.729Z,2.80
2019-01-30T19:11:18.400Z,2.60
2019-01-30T19:13:48.267Z,2.60
2019-01-30T19:16:18.462Z,2.93
2019-01-30T19:18:49.028Z,2.83
2019-01-30T19:21:20.204Z,2.50
2019-01-30T19:23:49.954Z,3.50
2019-01-30T19:26:20.647Z,3.42
2019-01-30T19:28:50.432Z,3.40
2019-01-30T19:31:20.378Z,3.87
2019-01-30T19:33:50.265Z,4.97
2019-01-30T19:36:20.625Z,3.70
2019-01-30T19:38:50.464Z,3.75
2019-01-30T19:41:20.417Z,3.72
2019-01-30T19:43:50.288Z,2.87
2019-01-30T19:46:20.060Z,3.02
2019-01-30T19:48:50.116Z,2.80
2019-01-30T19:51:20.357Z,2.90
2019-01-30T19:53:50.687Z,2.83
2019-01-30T19:56:20.602Z,2.65
2019-01-30T19:58:50.523Z,2.55
2019-01-30T20:01:20.589Z,2.80
2019-01-30T20:03:51.387Z,2.58
2019-01-30T20:06:21.467Z,2.35
2019-01-30T20:08:51.528Z,2.80
2019-01-30T20:11:21.902Z,3.10
2019-01-30T20:13:51.846Z,2.42
2019-01-30T20:16:22.599Z,2.72
2019-01-30T20:18:53.303Z,3.05
2019-01-30T20:21:24.072Z,3.05
2019-01-30T20:23:54.385Z,3.83
2019-01-30T20:26:25.793Z,3.58
2019-01-30T20:28:56.127Z,3.12
2019-01-30T20:31:26.089Z,3.27
2019-01-30T20:33:56.466Z,3.00
2019-01-30T20:36:26.886Z,3.30
2019-01-30T20:38:56.746Z,2.52
2019-01-30T20:41:26.258Z,3.40
2019-01-30T20:43:55.891Z,2.90
2019-01-30T20:46:25.809Z,2.95
2019-01-30T20:48:55.902Z,2.70
2019-01-30T20:51:26.280Z,2.90
2019-01-30T20:53:56.458Z,2.72
2019-01-30T20:56:26.444Z,2.52
2019-01-30T20:58:56.282Z,2.62
2019-01-30T21:01:26.197Z,2.65
2019-01-30T21:03:55.915Z,3.17
2019-01-30T21:06:26.013Z,2.50
2019-01-30T21:08:55.770Z,3.10
2019-01-30T21:11:25.525Z,2.80
2019-01-30T21:13:55.135Z,3.08
2019-01-30T21:16:25.131Z,2.80
2019-01-30T21:18:54.725Z,3.33
2019-01-30T21:21:24.912Z,2.83
2019-01-30T21:23:55.101Z,2.55
2019-01-30T21:26:24.558Z,2.87
2019-01-30T21:28:54.157Z,2.90
2019-01-30T21:31:24.099Z,3.10
2019-01-30T21:33:53.956Z,2.67
2019-01-30T21:36:23.755Z,2.75
2019-01-30T21:38:53.382Z,3.00
2019-01-30T21:41:22.885Z,2.85
2019-01-30T21:43:52.798Z,2.95
2019-01-30T21:46:22.519Z,3.17
2019-01-30T21:48:52.100Z,2.10
2019-01-30T21:51:22.375Z,2.52
2019-01-30T21:53:52.173Z,2.55
2019-01-30T21:56:22.009Z,3.15
2019-01-30T21:58:51.428Z,2.67
2019-01-30T22:01:21.377Z,2.85
2019-01-30T22:03:51.160Z,2.95
2019-01-30T22:06:20.897Z,3.62
2019-01-30T22:08:50.475Z,3.22
2019-01-30T22:11:20.265Z,3.08
2019-01-30T22:13:50.170Z,2.40
2019-01-30T22:16:19.751Z,2.67
2019-01-30T22:18:49.542Z,2.70
2019-01-30T22:21:20.057Z,2.42
2019-01-30T22:23:50.176Z,2.47
2019-01-30T22:26:19.684Z,2.85
2019-01-30T22:28:49.755Z,2.90
2019-01-30T22:31:19.629Z,2.65
2019-01-30T22:33:49.476Z,2.65
2019-01-30T22:36:19.255Z,2.17
2019-01-30T22:38:48.838Z,2.20
2019-01-30T22:41:18.209Z,2.70
2019-01-30T22:43:47.724Z,2.50
2019-01-30T22:46:17.264Z,2.37
2019-01-30T22:48:46.835Z,2.70
2019-01-30T22:51:16.303Z,2.50
2019-01-30T22:53:45.823Z,2.75
2019-01-30T22:56:15.375Z,2.33
2019-01-30T22:58:44.864Z,2.42
2019-01-30T23:01:44.590Z,2.47
2019-01-30T23:04:57.339Z,2.70
2019-01-30T23:08:09.462Z,2.20
2019-01-30T23:11:10.019Z,2.17
2019-01-30T23:14:03.826Z,2.90
2019-01-30T23:17:17.152Z,2.20
2019-01-30T23:20:12.535Z,2.17
2019-01-30T23:23:23.742Z,2.20
2019-01-30T23:26:34.062Z,2.15
2019-01-30T23:29:49.659Z,2.20
2019-01-30T23:32:52.815Z,2.20
2019-01-30T23:36:06.217Z,2.65
2019-01-30T23:39:10.321Z,2.08
2019-01-30T23:41:56.835Z,2.52
2019-01-30T23:44:56.292Z,2.15
2019-01-30T23:47:48.830Z,2.67
2019-01-30T23:50:43.119Z,2.55
2019-01-30T23:54:17.823Z,2.08
2019-01-30T23:57:22.855Z,1.80
